Don Bosco, Argentina
Current Conditions -  °F | °C
As of 5:25 PM on Friday 21 Nov 2014 (Local Time) from SABE Reporting Station
Light Rain Light Rain  
Wind Chill: 61°   Ceiling: 4500
Heat Index: 61°   Visibility: 1.8mi
Dew Point: 55°   Wind: 15mph
Humidity: 82%   Direction: 160°SSE
Pressure: 29.88"   Gusts: NA
Location:  34.7°S, 58.28°W
Report Text: SABE 212025Z 16013KT 3000 -RA BR SCT015 SCT025 OVC045 16/13 Q1012
Loading
Personal Weather Stations






























Interactive Weather Map New forecast layout! Learn more

10-Day Weather Forecast

Advertisements
Track Severe Weather on mobile